sensor_id;sensor_type;location;lat;lon;timestamp;temperature;humidity
54409;DHT22;40315;48.620;9.828;2022-11-09T00:02:23;9.60;99.90
54409;DHT22;40315;48.620;9.828;2022-11-09T00:07:17;9.70;99.90
54409;DHT22;40315;48.620;9.828;2022-11-09T00:09:45;9.70;99.90
54409;DHT22;40315;48.620;9.828;2022-11-09T00:12:12;9.70;99.90
54409;DHT22;40315;48.620;9.828;2022-11-09T00:17:06;9.60;99.90
54409;DHT22;40315;48.620;9.828;2022-11-09T00:22:02;9.50;99.90
54409;DHT22;40315;48.620;9.828;2022-11-09T00:24:29;9.50;99.90
54409;DHT22;40315;48.620;9.828;2022-11-09T00:26:56;9.60;99.90
54409;DHT22;40315;48.620;9.828;2022-11-09T00:29:23;9.50;99.90
54409;DHT22;40315;48.620;9.828;2022-11-09T00:31:50;9.50;99.90
54409;DHT22;40315;48.620;9.828;2022-11-09T00:34:17;9.50;99.90
54409;DHT22;40315;48.620;9.828;2022-11-09T00:36:47;9.40;99.90
54409;DHT22;40315;48.620;9.828;2022-11-09T00:39:14;9.40;99.90
54409;DHT22;40315;48.620;9.828;2022-11-09T00:41:41;9.40;99.90
54409;DHT22;40315;48.620;9.828;2022-11-09T00:44:08;9.50;99.90
54409;DHT22;40315;48.620;9.828;2022-11-09T00:46:35;9.50;99.90
54409;DHT22;40315;48.620;9.828;2022-11-09T00:49:05;9.50;99.90
54409;DHT22;40315;48.620;9.828;2022-11-09T00:51:32;9.40;99.90
54409;DHT22;40315;48.620;9.828;2022-11-09T00:54:04;9.40;99.90
54409;DHT22;40315;48.620;9.828;2022-11-09T00:56:32;9.50;99.90
54409;DHT22;40315;48.620;9.828;2022-11-09T00:58:59;9.50;99.90
54409;DHT22;40315;48.620;9.828;2022-11-09T01:01:26;9.50;99.90
54409;DHT22;40315;48.620;9.828;2022-11-09T01:03:53;9.50;99.90
54409;DHT22;40315;48.620;9.828;2022-11-09T01:06:23;9.50;99.90
54409;DHT22;40315;48.620;9.828;2022-11-09T01:08:51;9.50;99.90
54409;DHT22;40315;48.620;9.828;2022-11-09T01:11:20;9.50;99.90
54409;DHT22;40315;48.620;9.828;2022-11-09T01:13:51;9.50;99.90
54409;DHT22;40315;48.620;9.828;2022-11-09T01:16:20;9.60;99.90
54409;DHT22;40315;48.620;9.828;2022-11-09T01:18:51;9.60;99.90
54409;DHT22;40315;48.620;9.828;2022-11-09T01:21:18;9.60;99.90
54409;DHT22;40315;48.620;9.828;2022-11-09T01:23:45;9.80;99.90
54409;DHT22;40315;48.620;9.828;2022-11-09T01:26:14;9.50;99.90
54409;DHT22;40315;48.620;9.828;2022-11-09T01:28:43;9.40;99.90
54409;DHT22;40315;48.620;9.828;2022-11-09T01:31:12;9.60;99.90
54409;DHT22;40315;48.620;9.828;2022-11-09T01:33:40;9.20;99.90
54409;DHT22;40315;48.620;9.828;2022-11-09T01:36:09;9.20;99.90
54409;DHT22;40315;48.620;9.828;2022-11-09T01:38:37;9.30;99.90
54409;DHT22;40315;48.620;9.828;2022-11-09T01:41:10;9.30;99.90
54409;DHT22;40315;48.620;9.828;2022-11-09T01:47:04;9.30;99.90
54409;DHT22;40315;48.620;9.828;2022-11-09T01:49:41;9.30;99.90
54409;DHT22;40315;48.620;9.828;2022-11-09T01:52:13;9.20;99.90
54409;DHT22;40315;48.620;9.828;2022-11-09T01:54:45;9.20;99.90
54409;DHT22;40315;48.620;9.828;2022-11-09T01:57:16;9.10;99.90
54409;DHT22;40315;48.620;9.828;2022-11-09T01:59:49;9.20;99.90
54409;DHT22;40315;48.620;9.828;2022-11-09T02:02:19;9.20;99.90
54409;DHT22;40315;48.620;9.828;2022-11-09T02:04:50;9.20;99.90
54409;DHT22;40315;48.620;9.828;2022-11-09T02:07:20;9.20;99.90
54409;DHT22;40315;48.620;9.828;2022-11-09T02:09:52;9.20;99.90
54409;DHT22;40315;48.620;9.828;2022-11-09T02:12:22;9.10;99.90
54409;DHT22;40315;48.620;9.828;2022-11-09T02:14:51;9.10;99.90
54409;DHT22;40315;48.620;9.828;2022-11-09T02:17:21;9.10;99.90
54409;DHT22;40315;48.620;9.828;2022-11-09T02:19:48;9.10;99.90
54409;DHT22;40315;48.620;9.828;2022-11-09T02:22:17;9.00;99.90
54409;DHT22;40315;48.620;9.828;2022-11-09T02:24:44;9.00;99.90
54409;DHT22;40315;48.620;9.828;2022-11-09T02:27:11;9.00;99.90
54409;DHT22;40315;48.620;9.828;2022-11-09T02:29:42;9.00;99.90
54409;DHT22;40315;48.620;9.828;2022-11-09T02:32:13;9.00;99.90
54409;DHT22;40315;48.620;9.828;2022-11-09T02:34:42;9.00;99.90
54409;DHT22;40315;48.620;9.828;2022-11-09T02:37:09;8.90;99.90
54409;DHT22;40315;48.620;9.828;2022-11-09T02:39:38;9.00;99.90
54409;DHT22;40315;48.620;9.828;2022-11-09T02:42:10;9.50;99.90
54409;DHT22;40315;48.620;9.828;2022-11-09T02:44:44;8.90;99.90
54409;DHT22;40315;48.620;9.828;2022-11-09T02:47:13;9.00;99.90
54409;DHT22;40315;48.620;9.828;2022-11-09T02:49:44;9.00;99.90
54409;DHT22;40315;48.620;9.828;2022-11-09T02:52:11;9.10;99.90
54409;DHT22;40315;48.620;9.828;2022-11-09T02:54:40;9.10;99.90
54409;DHT22;40315;48.620;9.828;2022-11-09T02:57:07;9.90;99.90
54409;DHT22;40315;48.620;9.828;2022-11-09T02:59:34;9.20;99.90
54409;DHT22;40315;48.620;9.828;2022-11-09T03:02:04;9.60;99.90
54409;DHT22;40315;48.620;9.828;2022-11-09T03:04:31;9.30;99.90
54409;DHT22;40315;48.620;9.828;2022-11-09T03:07:00;9.50;99.90
54409;DHT22;40315;48.620;9.828;2022-11-09T03:09:28;9.40;99.90
54409;DHT22;40315;48.620;9.828;2022-11-09T03:11:57;9.40;99.90
54409;DHT22;40315;48.620;9.828;2022-11-09T03:14:24;9.50;99.90
54409;DHT22;40315;48.620;9.828;2022-11-09T03:16:55;9.50;99.90
54409;DHT22;40315;48.620;9.828;2022-11-09T03:19:23;9.60;99.90
54409;DHT22;40315;48.620;9.828;2022-11-09T03:21:52;9.70;99.90
54409;DHT22;40315;48.620;9.828;2022-11-09T03:24:22;10.30;99.90
54409;DHT22;40315;48.620;9.828;2022-11-09T03:26:52;9.70;99.90
54409;DHT22;40315;48.620;9.828;2022-11-09T03:29:21;9.80;99.90
54409;DHT22;40315;48.620;9.828;2022-11-09T03:31:48;9.80;99.90
54409;DHT22;40315;48.620;9.828;2022-11-09T03:34:15;9.80;99.90
54409;DHT22;40315;48.620;9.828;2022-11-09T03:36:42;9.90;99.90
54409;DHT22;40315;48.620;9.828;2022-11-09T03:39:09;9.90;99.90
54409;DHT22;40315;48.620;9.828;2022-11-09T03:41:36;9.90;99.90
54409;DHT22;40315;48.620;9.828;2022-11-09T03:44:03;10.00;99.90
54409;DHT22;40315;48.620;9.828;2022-11-09T03:48:59;9.80;99.90
54409;DHT22;40315;48.620;9.828;2022-11-09T03:51:26;9.80;99.90
54409;DHT22;40315;48.620;9.828;2022-11-09T03:53:58;9.80;99.90
54409;DHT22;40315;48.620;9.828;2022-11-09T03:56:25;9.90;99.90
54409;DHT22;40315;48.620;9.828;2022-11-09T03:58:52;9.90;99.90
54409;DHT22;40315;48.620;9.828;2022-11-09T04:01:19;9.80;99.90
54409;DHT22;40315;48.620;9.828;2022-11-09T04:06:15;10.00;99.90
54409;DHT22;40315;48.620;9.828;2022-11-09T04:08:42;10.20;99.90
54409;DHT22;40315;48.620;9.828;2022-11-09T04:11:09;10.10;99.90
54409;DHT22;40315;48.620;9.828;2022-11-09T04:13:36;10.20;99.90
54409;DHT22;40315;48.620;9.828;2022-11-09T04:16:04;10.30;99.90
54409;DHT22;40315;48.620;9.828;2022-11-09T04:18:31;10.30;99.90
54409;DHT22;40315;48.620;9.828;2022-11-09T04:21:00;10.30;99.90
54409;DHT22;40315;48.620;9.828;2022-11-09T04:23:27;10.30;99.90
54409;DHT22;40315;48.620;9.828;2022-11-09T04:25:56;10.20;99.90
54409;DHT22;40315;48.620;9.828;2022-11-09T04:28:23;10.60;99.90
54409;DHT22;40315;48.620;9.828;2022-11-09T04:30:50;10.30;99.90
54409;DHT22;40315;48.620;9.828;2022-11-09T04:33:17;10.40;99.90
54409;DHT22;40315;48.620;9.828;2022-11-09T04:35:44;10.40;99.90
54409;DHT22;40315;48.620;9.828;2022-11-09T04:38:13;10.40;99.90
54409;DHT22;40315;48.620;9.828;2022-11-09T04:40:40;10.70;99.90
54409;DHT22;40315;48.620;9.828;2022-11-09T04:43:10;10.40;99.90
54409;DHT22;40315;48.620;9.828;2022-11-09T04:45:38;10.40;99.90
54409;DHT22;40315;48.620;9.828;2022-11-09T04:48:06;10.50;99.90
54409;DHT22;40315;48.620;9.828;2022-11-09T04:50:33;10.50;99.90
54409;DHT22;40315;48.620;9.828;2022-11-09T04:53:05;10.40;99.90
54409;DHT22;40315;48.620;9.828;2022-11-09T04:55:34;10.40;99.90
54409;DHT22;40315;48.620;9.828;2022-11-09T04:58:01;10.40;99.90
54409;DHT22;40315;48.620;9.828;2022-11-09T05:00:29;10.60;99.90
54409;DHT22;40315;48.620;9.828;2022-11-09T05:02:59;10.40;99.90
54409;DHT22;40315;48.620;9.828;2022-11-09T05:05:27;10.40;99.90
54409;DHT22;40315;48.620;9.828;2022-11-09T05:07:54;10.40;99.90
54409;DHT22;40315;48.620;9.828;2022-11-09T05:10:21;10.30;99.90
54409;DHT22;40315;48.620;9.828;2022-11-09T05:12:49;10.20;99.90
54409;DHT22;40315;48.620;9.828;2022-11-09T05:15:22;10.20;99.90
54409;DHT22;40315;48.620;9.828;2022-11-09T05:17:49;10.20;99.90
54409;DHT22;40315;48.620;9.828;2022-11-09T05:20:17;10.30;99.90
54409;DHT22;40315;48.620;9.828;2022-11-09T05:22:46;10.20;99.90
54409;DHT22;40315;48.620;9.828;2022-11-09T05:25:30;10.20;99.90
54409;DHT22;40315;48.620;9.828;2022-11-09T05:27:59;10.30;99.90
54409;DHT22;40315;48.620;9.828;2022-11-09T05:30:26;10.30;99.90
54409;DHT22;40315;48.620;9.828;2022-11-09T05:32:53;10.30;99.90
54409;DHT22;40315;48.620;9.828;2022-11-09T05:35:20;10.30;99.90
54409;DHT22;40315;48.620;9.828;2022-11-09T05:37:48;10.30;99.90
54409;DHT22;40315;48.620;9.828;2022-11-09T05:40:16;10.30;99.90
54409;DHT22;40315;48.620;9.828;2022-11-09T05:42:43;10.30;99.90
54409;DHT22;40315;48.620;9.828;2022-11-09T05:45:14;10.30;99.90
54409;DHT22;40315;48.620;9.828;2022-11-09T05:47:42;9.10;99.90
54409;DHT22;40315;48.620;9.828;2022-11-09T05:50:12;10.20;99.90
54409;DHT22;40315;48.620;9.828;2022-11-09T05:52:40;10.30;99.90
54409;DHT22;40315;48.620;9.828;2022-11-09T05:55:08;10.10;99.90
54409;DHT22;40315;48.620;9.828;2022-11-09T05:57:35;10.00;99.90
54409;DHT22;40315;48.620;9.828;2022-11-09T06:00:04;10.10;99.90
54409;DHT22;40315;48.620;9.828;2022-11-09T06:02:40;10.10;99.90
54409;DHT22;40315;48.620;9.828;2022-11-09T06:05:07;10.20;99.90
54409;DHT22;40315;48.620;9.828;2022-11-09T06:07:38;10.30;99.90
54409;DHT22;40315;48.620;9.828;2022-11-09T06:10:06;10.30;99.90
54409;DHT22;40315;48.620;9.828;2022-11-09T06:12:33;10.20;99.90
54409;DHT22;40315;48.620;9.828;2022-11-09T06:15:00;10.20;99.90
54409;DHT22;40315;48.620;9.828;2022-11-09T06:17:28;10.20;99.90
54409;DHT22;40315;48.620;9.828;2022-11-09T06:19:56;10.20;99.90
54409;DHT22;40315;48.620;9.828;2022-11-09T06:22:23;10.30;99.90
54409;DHT22;40315;48.620;9.828;2022-11-09T06:24:50;10.20;99.90
54409;DHT22;40315;48.620;9.828;2022-11-09T06:27:17;10.10;99.90
54409;DHT22;40315;48.620;9.828;2022-11-09T06:29:44;10.00;99.90
54409;DHT22;40315;48.620;9.828;2022-11-09T06:32:11;10.00;99.90
54409;DHT22;40315;48.620;9.828;2022-11-09T06:34:38;10.00;99.90
54409;DHT22;40315;48.620;9.828;2022-11-09T06:37:06;10.10;99.90
54409;DHT22;40315;48.620;9.828;2022-11-09T06:39:33;10.20;99.90
54409;DHT22;40315;48.620;9.828;2022-11-09T06:42:03;10.30;99.90
54409;DHT22;40315;48.620;9.828;2022-11-09T06:44:30;10.30;99.90
54409;DHT22;40315;48.620;9.828;2022-11-09T06:46:57;10.40;99.90
54409;DHT22;40315;48.620;9.828;2022-11-09T06:49:24;10.50;99.90
54409;DHT22;40315;48.620;9.828;2022-11-09T06:51:51;10.50;99.90
54409;DHT22;40315;48.620;9.828;2022-11-09T06:56:47;10.40;99.90
54409;DHT22;40315;48.620;9.828;2022-11-09T06:59:14;10.40;99.90
54409;DHT22;40315;48.620;9.828;2022-11-09T07:01:41;10.50;99.90
54409;DHT22;40315;48.620;9.828;2022-11-09T07:04:08;10.40;99.90
54409;DHT22;40315;48.620;9.828;2022-11-09T07:06:39;10.40;99.90
54409;DHT22;40315;48.620;9.828;2022-11-09T07:09:07;10.40;99.90
54409;DHT22;40315;48.620;9.828;2022-11-09T07:14:03;10.50;99.90
54409;DHT22;40315;48.620;9.828;2022-11-09T07:16:30;10.60;99.90
54409;DHT22;40315;48.620;9.828;2022-11-09T07:18:58;10.60;99.90
54409;DHT22;40315;48.620;9.828;2022-11-09T07:21:25;10.60;99.90
54409;DHT22;40315;48.620;9.828;2022-11-09T07:23:52;10.60;99.90
54409;DHT22;40315;48.620;9.828;2022-11-09T07:26:19;10.70;99.90
54409;DHT22;40315;48.620;9.828;2022-11-09T07:28:47;10.80;99.90
54409;DHT22;40315;48.620;9.828;2022-11-09T07:31:14;10.80;99.90
54409;DHT22;40315;48.620;9.828;2022-11-09T07:33:41;10.80;99.90
54409;DHT22;40315;48.620;9.828;2022-11-09T07:36:08;10.80;99.90
54409;DHT22;40315;48.620;9.828;2022-11-09T07:38:35;10.90;99.90
54409;DHT22;40315;48.620;9.828;2022-11-09T07:41:02;10.80;99.90
54409;DHT22;40315;48.620;9.828;2022-11-09T07:43:29;10.90;99.90
54409;DHT22;40315;48.620;9.828;2022-11-09T07:46:02;10.90;99.90
54409;DHT22;40315;48.620;9.828;2022-11-09T07:48:32;11.00;99.90
54409;DHT22;40315;48.620;9.828;2022-11-09T07:51:00;11.00;99.90
54409;DHT22;40315;48.620;9.828;2022-11-09T07:53:27;11.00;99.90
54409;DHT22;40315;48.620;9.828;2022-11-09T07:55:57;11.00;99.90
54409;DHT22;40315;48.620;9.828;2022-11-09T07:58:25;11.10;99.90
54409;DHT22;40315;48.620;9.828;2022-11-09T08:00:52;11.10;99.90
54409;DHT22;40315;48.620;9.828;2022-11-09T08:03:23;11.10;99.90
54409;DHT22;40315;48.620;9.828;2022-11-09T08:05:50;11.20;99.90
54409;DHT22;40315;48.620;9.828;2022-11-09T08:08:17;12.00;99.90
54409;DHT22;40315;48.620;9.828;2022-11-09T08:10:44;11.20;99.90
54409;DHT22;40315;48.620;9.828;2022-11-09T08:13:16;12.20;99.90
54409;DHT22;40315;48.620;9.828;2022-11-09T08:15:43;11.40;99.90
54409;DHT22;40315;48.620;9.828;2022-11-09T08:18:12;11.40;99.90
54409;DHT22;40315;48.620;9.828;2022-11-09T08:20:44;11.50;99.90
54409;DHT22;40315;48.620;9.828;2022-11-09T08:23:12;11.50;99.90
54409;DHT22;40315;48.620;9.828;2022-11-09T08:25:40;11.50;99.90
54409;DHT22;40315;48.620;9.828;2022-11-09T08:28:07;11.50;99.90
54409;DHT22;40315;48.620;9.828;2022-11-09T08:30:34;11.50;99.90
54409;DHT22;40315;48.620;9.828;2022-11-09T08:33:02;11.60;99.90
54409;DHT22;40315;48.620;9.828;2022-11-09T08:35:30;11.60;99.90
54409;DHT22;40315;48.620;9.828;2022-11-09T08:37:59;11.60;99.90
54409;DHT22;40315;48.620;9.828;2022-11-09T08:40:27;11.70;99.90
54409;DHT22;40315;48.620;9.828;2022-11-09T08:42:54;11.60;99.90
54409;DHT22;40315;48.620;9.828;2022-11-09T08:45:21;11.70;99.90
54409;DHT22;40315;48.620;9.828;2022-11-09T08:47:48;11.70;99.90
54409;DHT22;40315;48.620;9.828;2022-11-09T08:50:22;11.80;99.90
54409;DHT22;40315;48.620;9.828;2022-11-09T08:52:49;11.90;99.90
54409;DHT22;40315;48.620;9.828;2022-11-09T08:55:18;11.80;99.90
54409;DHT22;40315;48.620;9.828;2022-11-09T08:57:45;11.70;99.90
54409;DHT22;40315;48.620;9.828;2022-11-09T09:00:13;11.60;99.90
54409;DHT22;40315;48.620;9.828;2022-11-09T09:02:42;11.50;99.90
54409;DHT22;40315;48.620;9.828;2022-11-09T09:05:09;11.40;99.90
54409;DHT22;40315;48.620;9.828;2022-11-09T09:07:36;11.40;99.90
54409;DHT22;40315;48.620;9.828;2022-11-09T09:10:04;11.50;99.90
54409;DHT22;40315;48.620;9.828;2022-11-09T09:12:32;11.40;99.90
54409;DHT22;40315;48.620;9.828;2022-11-09T09:15:00;11.50;99.90
54409;DHT22;40315;48.620;9.828;2022-11-09T09:17:27;11.50;99.90
54409;DHT22;40315;48.620;9.828;2022-11-09T09:19:54;11.50;99.90
54409;DHT22;40315;48.620;9.828;2022-11-09T09:22:21;11.60;99.90
54409;DHT22;40315;48.620;9.828;2022-11-09T09:24:48;11.70;99.90
54409;DHT22;40315;48.620;9.828;2022-11-09T09:27:15;11.80;99.90
54409;DHT22;40315;48.620;9.828;2022-11-09T09:29:43;11.80;99.90
54409;DHT22;40315;48.620;9.828;2022-11-09T09:32:10;11.80;99.90
54409;DHT22;40315;48.620;9.828;2022-11-09T09:34:37;11.90;99.90
54409;DHT22;40315;48.620;9.828;2022-11-09T09:37:04;11.90;99.90
54409;DHT22;40315;48.620;9.828;2022-11-09T09:39:31;11.90;99.90
54409;DHT22;40315;48.620;9.828;2022-11-09T09:42:00;12.00;99.90
54409;DHT22;40315;48.620;9.828;2022-11-09T09:44:33;12.00;99.90
54409;DHT22;40315;48.620;9.828;2022-11-09T09:47:11;12.10;99.90
54409;DHT22;40315;48.620;9.828;2022-11-09T09:49:41;12.10;99.90
54409;DHT22;40315;48.620;9.828;2022-11-09T09:52:15;12.10;99.90
54409;DHT22;40315;48.620;9.828;2022-11-09T09:54:49;12.10;99.90
54409;DHT22;40315;48.620;9.828;2022-11-09T09:57:20;12.10;99.90
54409;DHT22;40315;48.620;9.828;2022-11-09T09:59:49;12.70;99.90
54409;DHT22;40315;48.620;9.828;2022-11-09T10:04:51;12.10;99.90
54409;DHT22;40315;48.620;9.828;2022-11-09T10:07:23;12.00;99.90
54409;DHT22;40315;48.620;9.828;2022-11-09T10:12:56;12.20;99.90
54409;DHT22;40315;48.620;9.828;2022-11-09T10:15:32;12.30;99.90
54409;DHT22;40315;48.620;9.828;2022-11-09T10:18:19;12.50;99.90
54409;DHT22;40315;48.620;9.828;2022-11-09T10:20:59;12.60;99.90
54409;DHT22;40315;48.620;9.828;2022-11-09T10:23:39;12.80;99.90
54409;DHT22;40315;48.620;9.828;2022-11-09T10:26:15;12.80;99.90
54409;DHT22;40315;48.620;9.828;2022-11-09T10:28:46;12.90;99.90
54409;DHT22;40315;48.620;9.828;2022-11-09T10:31:18;12.90;99.90
54409;DHT22;40315;48.620;9.828;2022-11-09T10:33:50;12.80;99.90
54409;DHT22;40315;48.620;9.828;2022-11-09T10:36:23;12.80;99.90
54409;DHT22;40315;48.620;9.828;2022-11-09T10:38:52;12.50;99.90
54409;DHT22;40315;48.620;9.828;2022-11-09T10:41:42;13.10;99.90
54409;DHT22;40315;48.620;9.828;2022-11-09T10:44:29;13.10;99.90
54409;DHT22;40315;48.620;9.828;2022-11-09T10:47:16;13.20;99.90
54409;DHT22;40315;48.620;9.828;2022-11-09T10:50:16;11.60;99.90
54409;DHT22;40315;48.620;9.828;2022-11-09T10:53:13;13.20;99.90
54409;DHT22;40315;48.620;9.828;2022-11-09T10:56:09;13.20;99.90
54409;DHT22;40315;48.620;9.828;2022-11-09T10:58:55;13.20;99.90
54409;DHT22;40315;48.620;9.828;2022-11-09T11:01:41;13.30;99.90
54409;DHT22;40315;48.620;9.828;2022-11-09T11:04:27;13.40;99.90
54409;DHT22;40315;48.620;9.828;2022-11-09T11:07:18;13.60;99.90
54409;DHT22;40315;48.620;9.828;2022-11-09T11:10:13;13.60;99.90
54409;DHT22;40315;48.620;9.828;2022-11-09T11:13:20;13.70;99.90
54409;DHT22;40315;48.620;9.828;2022-11-09T11:16:13;13.80;99.90
54409;DHT22;40315;48.620;9.828;2022-11-09T11:19:00;14.10;99.90
54409;DHT22;40315;48.620;9.828;2022-11-09T11:22:08;14.10;99.90
54409;DHT22;40315;48.620;9.828;2022-11-09T11:25:00;14.40;99.90
54409;DHT22;40315;48.620;9.828;2022-11-09T11:27:49;14.40;99.90
54409;DHT22;40315;48.620;9.828;2022-11-09T11:30:37;14.70;99.90
54409;DHT22;40315;48.620;9.828;2022-11-09T11:33:24;15.00;99.90
54409;DHT22;40315;48.620;9.828;2022-11-09T11:36:18;14.90;99.90
54409;DHT22;40315;48.620;9.828;2022-11-09T11:39:12;15.10;99.90
54409;DHT22;40315;48.620;9.828;2022-11-09T11:42:21;15.40;99.90
54409;DHT22;40315;48.620;9.828;2022-11-09T11:45:14;15.50;99.90
54409;DHT22;40315;48.620;9.828;2022-11-09T11:48:14;15.70;99.90
54409;DHT22;40315;48.620;9.828;2022-11-09T11:51:08;15.70;99.90
54409;DHT22;40315;48.620;9.828;2022-11-09T11:54:05;15.70;99.90
54409;DHT22;40315;48.620;9.828;2022-11-09T11:56:58;15.70;99.90
54409;DHT22;40315;48.620;9.828;2022-11-09T12:00:03;15.60;99.90
54409;DHT22;40315;48.620;9.828;2022-11-09T12:06:28;15.70;99.90
54409;DHT22;40315;48.620;9.828;2022-11-09T12:12:43;15.90;99.90
54409;DHT22;40315;48.620;9.828;2022-11-09T12:15:46;15.80;99.90
54409;DHT22;40315;48.620;9.828;2022-11-09T12:18:41;15.80;99.90
54409;DHT22;40315;48.620;9.828;2022-11-09T12:21:35;15.80;99.90
54409;DHT22;40315;48.620;9.828;2022-11-09T12:24:28;15.80;99.90
54409;DHT22;40315;48.620;9.828;2022-11-09T12:27:36;15.80;99.90
54409;DHT22;40315;48.620;9.828;2022-11-09T12:30:29;15.80;99.90
54409;DHT22;40315;48.620;9.828;2022-11-09T12:33:29;15.80;99.90
54409;DHT22;40315;48.620;9.828;2022-11-09T12:36:21;15.80;99.90
54409;DHT22;40315;48.620;9.828;2022-11-09T12:39:13;15.70;99.90
54409;DHT22;40315;48.620;9.828;2022-11-09T12:42:04;15.70;99.90
54409;DHT22;40315;48.620;9.828;2022-11-09T12:44:57;15.60;99.90
54409;DHT22;40315;48.620;9.828;2022-11-09T12:47:46;15.60;99.90
54409;DHT22;40315;48.620;9.828;2022-11-09T12:50:33;15.60;99.90
54409;DHT22;40315;48.620;9.828;2022-11-09T12:53:22;15.60;99.90
54409;DHT22;40315;48.620;9.828;2022-11-09T12:56:14;15.50;99.90
54409;DHT22;40315;48.620;9.828;2022-11-09T13:02:20;15.40;99.90
54409;DHT22;40315;48.620;9.828;2022-11-09T13:08:23;15.40;99.90
54409;DHT22;40315;48.620;9.828;2022-11-09T13:11:17;15.40;99.90
54409;DHT22;40315;48.620;9.828;2022-11-09T13:14:26;15.50;99.90
54409;DHT22;40315;48.620;9.828;2022-11-09T13:20:47;15.30;99.90
54409;DHT22;40315;48.620;9.828;2022-11-09T13:23:36;15.30;99.90
54409;DHT22;40315;48.620;9.828;2022-11-09T13:26:42;15.20;99.90
54409;DHT22;40315;48.620;9.828;2022-11-09T13:29:46;15.20;99.90
54409;DHT22;40315;48.620;9.828;2022-11-09T13:32:32;15.20;99.90
54409;DHT22;40315;48.620;9.828;2022-11-09T13:38:44;15.20;99.90
54409;DHT22;40315;48.620;9.828;2022-11-09T13:41:41;15.10;99.90
54409;DHT22;40315;48.620;9.828;2022-11-09T13:44:28;15.20;99.90
54409;DHT22;40315;48.620;9.828;2022-11-09T13:47:22;15.10;99.90
54409;DHT22;40315;48.620;9.828;2022-11-09T13:50:15;15.10;99.90
54409;DHT22;40315;48.620;9.828;2022-11-09T13:58:36;15.00;99.90
54409;DHT22;40315;48.620;9.828;2022-11-09T14:01:28;15.10;99.90
54409;DHT22;40315;48.620;9.828;2022-11-09T14:04:25;15.20;99.90
54409;DHT22;40315;48.620;9.828;2022-11-09T14:07:15;15.20;99.90
54409;DHT22;40315;48.620;9.828;2022-11-09T14:10:11;15.10;99.90
54409;DHT22;40315;48.620;9.828;2022-11-09T14:16:19;15.10;99.90
54409;DHT22;40315;48.620;9.828;2022-11-09T14:19:18;15.00;99.90
54409;DHT22;40315;48.620;9.828;2022-11-09T14:22:13;14.90;99.90
54409;DHT22;40315;48.620;9.828;2022-11-09T14:25:03;14.90;99.90
54409;DHT22;40315;48.620;9.828;2022-11-09T14:27:53;14.80;99.90
54409;DHT22;40315;48.620;9.828;2022-11-09T14:33:31;14.70;99.90
54409;DHT22;40315;48.620;9.828;2022-11-09T14:39:13;14.60;99.90
54409;DHT22;40315;48.620;9.828;2022-11-09T14:42:01;14.50;99.90
54409;DHT22;40315;48.620;9.828;2022-11-09T14:44:46;14.40;99.90
54409;DHT22;40315;48.620;9.828;2022-11-09T14:47:36;14.30;99.90
54409;DHT22;40315;48.620;9.828;2022-11-09T14:50:24;14.30;99.90
54409;DHT22;40315;48.620;9.828;2022-11-09T14:53:13;14.30;99.90
54409;DHT22;40315;48.620;9.828;2022-11-09T14:56:03;14.00;99.90
54409;DHT22;40315;48.620;9.828;2022-11-09T14:58:50;13.70;99.90
54409;DHT22;40315;48.620;9.828;2022-11-09T15:07:15;13.60;99.90
54409;DHT22;40315;48.620;9.828;2022-11-09T15:10:05;13.50;99.90
54409;DHT22;40315;48.620;9.828;2022-11-09T15:12:53;13.50;99.90
54409;DHT22;40315;48.620;9.828;2022-11-09T15:18:27;13.60;99.90
54409;DHT22;40315;48.620;9.828;2022-11-09T15:21:17;13.70;99.90
54409;DHT22;40315;48.620;9.828;2022-11-09T15:24:12;13.70;99.90
54409;DHT22;40315;48.620;9.828;2022-11-09T15:26:58;13.70;99.90
54409;DHT22;40315;48.620;9.828;2022-11-09T15:29:44;13.70;99.90
54409;DHT22;40315;48.620;9.828;2022-11-09T15:32:32;13.70;99.90
54409;DHT22;40315;48.620;9.828;2022-11-09T15:35:24;13.90;99.90
54409;DHT22;40315;48.620;9.828;2022-11-09T15:38:30;13.60;99.90
54409;DHT22;40315;48.620;9.828;2022-11-09T15:41:18;13.60;99.90
54409;DHT22;40315;48.620;9.828;2022-11-09T15:44:04;13.60;99.90
54409;DHT22;40315;48.620;9.828;2022-11-09T15:46:51;13.60;99.90
54409;DHT22;40315;48.620;9.828;2022-11-09T15:49:37;13.70;99.90
54409;DHT22;40315;48.620;9.828;2022-11-09T15:52:23;13.70;99.90
54409;DHT22;40315;48.620;9.828;2022-11-09T15:55:12;13.50;99.90
54409;DHT22;40315;48.620;9.828;2022-11-09T15:57:58;13.40;99.90
54409;DHT22;40315;48.620;9.828;2022-11-09T16:00:44;13.40;99.90
54409;DHT22;40315;48.620;9.828;2022-11-09T16:03:30;13.40;99.90
54409;DHT22;40315;48.620;9.828;2022-11-09T16:06:17;13.40;99.90
54409;DHT22;40315;48.620;9.828;2022-11-09T16:09:05;13.40;99.90
54409;DHT22;40315;48.620;9.828;2022-11-09T16:11:52;13.30;99.90
54409;DHT22;40315;48.620;9.828;2022-11-09T16:14:37;13.20;99.90
54409;DHT22;40315;48.620;9.828;2022-11-09T16:17:24;13.20;99.90
54409;DHT22;40315;48.620;9.828;2022-11-09T16:20:10;13.20;99.90
54409;DHT22;40315;48.620;9.828;2022-11-09T16:25:42;13.20;99.90
54409;DHT22;40315;48.620;9.828;2022-11-09T16:28:29;13.00;99.90
54409;DHT22;40315;48.620;9.828;2022-11-09T16:31:14;12.90;99.90
54409;DHT22;40315;48.620;9.828;2022-11-09T16:34:00;13.00;99.90
54409;DHT22;40315;48.620;9.828;2022-11-09T16:36:46;13.10;99.90
54409;DHT22;40315;48.620;9.828;2022-11-09T16:39:33;13.00;99.90
54409;DHT22;40315;48.620;9.828;2022-11-09T16:42:19;13.10;99.90
54409;DHT22;40315;48.620;9.828;2022-11-09T16:45:08;13.10;99.90
54409;DHT22;40315;48.620;9.828;2022-11-09T16:47:55;13.10;99.90
54409;DHT22;40315;48.620;9.828;2022-11-09T16:50:41;13.10;99.90
54409;DHT22;40315;48.620;9.828;2022-11-09T16:53:26;13.00;99.90
54409;DHT22;40315;48.620;9.828;2022-11-09T16:56:12;13.00;99.90
54409;DHT22;40315;48.620;9.828;2022-11-09T16:58:58;12.90;99.90
54409;DHT22;40315;48.620;9.828;2022-11-09T17:01:50;12.90;99.90
54409;DHT22;40315;48.620;9.828;2022-11-09T17:04:36;12.90;99.90
54409;DHT22;40315;48.620;9.828;2022-11-09T17:07:21;12.80;99.90
54409;DHT22;40315;48.620;9.828;2022-11-09T17:10:08;12.90;99.90
54409;DHT22;40315;48.620;9.828;2022-11-09T17:12:53;12.90;99.90
54409;DHT22;40315;48.620;9.828;2022-11-09T17:15:40;12.80;99.90
54409;DHT22;40315;48.620;9.828;2022-11-09T17:18:26;12.60;99.90
54409;DHT22;40315;48.620;9.828;2022-11-09T17:21:12;12.60;99.90
54409;DHT22;40315;48.620;9.828;2022-11-09T17:23:58;12.70;99.90
54409;DHT22;40315;48.620;9.828;2022-11-09T17:26:44;12.80;99.90
54409;DHT22;40315;48.620;9.828;2022-11-09T17:29:29;12.70;99.90
54409;DHT22;40315;48.620;9.828;2022-11-09T17:32:15;12.60;99.90
54409;DHT22;40315;48.620;9.828;2022-11-09T17:35:07;12.50;99.90
54409;DHT22;40315;48.620;9.828;2022-11-09T17:37:52;12.40;99.90
54409;DHT22;40315;48.620;9.828;2022-11-09T17:40:37;12.20;99.90
54409;DHT22;40315;48.620;9.828;2022-11-09T17:43:23;12.20;99.90
54409;DHT22;40315;48.620;9.828;2022-11-09T17:46:10;12.30;99.90